Time;durP1;ratioP1;P1;durP2;ratioP2;P2;SDS_P1;SDS_P2;PMS_P1;PMS_P2;Temp;Humidity;BMP_temperature;BMP_pressure;BME280_temperature;BME280_humidity;BME280_pressure;Samples;Min_cycle;Max_cycle;Signal;HPM_P1;HPM_P2
2022/09/01 00:01:34;;;;;;;;;;;;;;;;;;4919539;29;20016;-85
2022/09/01 00:04:01;;;;;;;4.97;1.63;;;;;;;;;;4918978;29;19915;-81
2022/09/01 00:06:29;;;;;;;6.38;1.77;;;;;;;;;;4902800;29;20035;-89
2022/09/01 00:08:56;;;;;;;2.45;1.25;;;;;;;;;;4902347;29;20032;-82
2022/09/01 00:11:23;;;;;;;3.47;1.50;;;;;;;;;;4902786;29;20032;-81
2022/09/01 00:13:50;;;;;;;3.83;1.60;;;;;;;;;;4903371;29;20107;-83
2022/09/01 00:16:18;;;;;;;3.13;1.60;;;;;;;;;;4903626;29;20521;-82
2022/09/01 00:18:45;;;;;;;4.35;1.63;;;;;;;;;;4903443;29;20071;-81
2022/09/01 00:21:12;;;;;;;6.65;1.85;;;;;;;;;;4904311;29;20362;-82
2022/09/01 00:23:38;;;;;;;2.97;1.60;;;;;;;;;;4909704;29;20052;-88
2022/09/01 00:26:05;;;;;;;3.10;1.70;;;;;;;;;;4902179;29;20378;-82
2022/09/01 00:28:35;;;;;;;3.17;1.60;;;;;;;;;;4902437;29;20131;-84
2022/09/01 00:31:03;;;;;;;5.70;1.73;;;;;;;;;;4902599;29;20028;-83
2022/09/01 00:33:29;;;;;;;3.30;1.73;;;;;;;;;;4901258;29;20450;-83
2022/09/01 00:35:55;;;;;;;4.47;1.80;;;;;;;;;;4901436;29;20036;-83
2022/09/01 00:38:21;;;;;;;2.65;1.45;;;;;;;;;;4902023;29;20040;-83
2022/09/01 00:40:48;;;;;;;12.25;2.00;;;;;;;;;;4901332;29;20366;-83
2022/09/01 00:43:21;;;;;;;7.47;2.10;;;;;;;;;;4902657;29;20039;-82
2022/09/01 00:45:50;;;;;;;4.53;1.80;;;;;;;;;;4903102;29;20032;-83
2022/09/01 00:48:16;;;;;;;3.00;1.42;;;;;;;;;;4902769;29;20067;-82
2022/09/01 00:50:43;;;;;;;4.65;1.65;;;;;;;;;;4900627;29;20032;-80
2022/09/01 00:53:09;;;;;;;4.00;1.73;;;;;;;;;;4900973;29;20160;-83
2022/09/01 00:55:37;;;;;;;5.22;1.85;;;;;;;;;;4904386;29;20037;-82
2022/09/01 00:58:04;;;;;;;5.82;1.77;;;;;;;;;;4904771;29;20163;-89
2022/09/01 01:00:39;;;;;;;4.30;2.10;;;;;;;;;;4923668;29;20043;-82
2022/09/01 01:03:06;;;;;;;5.18;2.03;;;;;;;;;;4906016;29;20434;-81
2022/09/01 01:05:35;;;;;;;6.80;1.77;;;;;;;;;;4905458;29;20400;-81
2022/09/01 01:08:02;;;;;;;2.92;1.80;;;;;;;;;;4905878;29;20062;-82
2022/09/01 01:10:31;;;;;;;3.72;1.73;;;;;;;;;;4923193;29;20040;-81
2022/09/01 01:13:03;;;;;;;3.22;1.63;;;;;;;;;;4905389;29;20370;-81
2022/09/01 01:15:29;;;;;;;2.40;1.40;;;;;;;;;;4904999;29;20039;-82
2022/09/01 01:17:56;;;;;;;3.40;1.73;;;;;;;;;;4905894;29;20051;-82
2022/09/01 01:23:16;;;;;;;5.32;1.70;;;;;;;;;;4923727;29;20058;-87
2022/09/01 01:25:48;;;;;;;5.47;1.63;;;;;;;;;;4907106;29;20031;-83
2022/09/01 01:28:18;;;;;;;7.82;1.77;;;;;;;;;;4921776;29;20470;-82
2022/09/01 01:30:49;;;;;;;3.50;1.55;;;;;;;;;;4905776;29;20032;-88
2022/09/01 01:33:16;;;;;;;3.50;1.85;;;;;;;;;;4906391;29;20032;-83
2022/09/01 01:35:42;;;;;;;3.45;1.80;;;;;;;;;;4905225;29;20027;-82
2022/09/01 01:38:10;;;;;;;3.63;1.60;;;;;;;;;;4904427;29;20032;-82
2022/09/01 01:40:38;;;;;;;3.13;1.50;;;;;;;;;;4904276;29;20048;-87
2022/09/01 01:43:05;;;;;;;3.65;1.65;;;;;;;;;;4922088;29;20036;-82
2022/09/01 01:45:31;;;;;;;2.97;1.50;;;;;;;;;;4904707;29;20072;-89
2022/09/01 01:47:57;;;;;;;2.92;1.55;;;;;;;;;;4923224;29;20036;-83
2022/09/01 01:50:29;;;;;;;4.50;1.67;;;;;;;;;;4905063;29;20453;-82
2022/09/01 01:52:58;;;;;;;3.45;1.60;;;;;;;;;;4905903;29;20385;-83
2022/09/01 01:55:27;;;;;;;3.58;1.50;;;;;;;;;;4909352;29;20024;-88
2022/09/01 01:57:55;;;;;;;2.92;1.48;;;;;;;;;;4907526;29;20032;-83
2022/09/01 02:00:23;;;;;;;6.32;1.58;;;;;;;;;;4916224;29;20032;-89
2022/09/01 02:02:53;;;;;;;3.92;1.42;;;;;;;;;;4921517;29;20164;-83
2022/09/01 02:05:20;;;;;;;4.82;1.42;;;;;;;;;;4903861;29;20039;-87
2022/09/01 02:07:47;;;;;;;3.58;1.75;;;;;;;;;;4920299;29;20111;-83
2022/09/01 02:10:13;;;;;;;3.47;1.63;;;;;;;;;;4904466;29;20040;-82
2022/09/01 02:12:42;;;;;;;8.48;1.60;;;;;;;;;;4904444;29;20024;-87
2022/09/01 02:15:10;;;;;;;6.10;1.80;;;;;;;;;;4920868;29;20083;-82
2022/09/01 02:17:38;;;;;;;4.03;1.65;;;;;;;;;;4903802;29;20026;-82
2022/09/01 02:20:05;;;;;;;4.47;1.75;;;;;;;;;;4905090;29;20379;-82
2022/09/01 02:22:31;;;;;;;3.55;1.67;;;;;;;;;;4903819;29;20047;-88
2022/09/01 02:24:59;;;;;;;4.25;1.60;;;;;;;;;;4910369;29;20123;-83
2022/09/01 02:27:32;;;;;;;3.50;1.88;;;;;;;;;;4904335;29;20051;-83
2022/09/01 02:30:00;;;;;;;2.95;1.40;;;;;;;;;;4906586;29;20370;-83
2022/09/01 02:32:27;;;;;;;3.88;1.60;;;;;;;;;;4905859;29;20060;-89
2022/09/01 02:34:59;;;;;;;4.60;1.58;;;;;;;;;;4905520;29;20035;-83
2022/09/01 02:37:26;;;;;;;2.55;1.50;;;;;;;;;;4904537;29;20024;-87
2022/09/01 02:42:53;;;;;;;4.60;1.63;;;;;;;;;;4919610;29;20056;-81
2022/09/01 02:45:19;;;;;;;6.05;1.80;;;;;;;;;;4919984;29;20510;-88
2022/09/01 02:47:47;;;;;;;4.35;1.42;;;;;;;;;;4920549;29;20378;-82
2022/09/01 02:50:18;;;;;;;3.30;1.73;;;;;;;;;;4918612;29;20032;-88
2022/09/01 02:52:48;;;;;;;7.38;1.80;;;;;;;;;;4919015;29;20032;-83
2022/09/01 02:55:20;;;;;;;3.65;1.65;;;;;;;;;;4919074;29;20028;-80
2022/09/01 02:57:54;;;;;;;5.18;1.50;;;;;;;;;;4919244;29;20500;-82
2022/09/01 03:00:27;;;;;;;4.15;1.90;;;;;;;;;;4918343;29;20123;-82
2022/09/01 03:02:55;;;;;;;;;;;;;;;;;;4919548;29;20028;-81
2022/09/01 03:05:25;;;;;;;6.97;1.70;;;;;;;;;;4921872;29;20002;-82
2022/09/01 03:07:55;;;;;;;7.30;1.80;;;;;;;;;;4920009;29;20111;-88
2022/09/01 03:10:23;;;;;;;5.18;2.13;;;;;;;;;;4918990;29;20040;-83
2022/09/01 03:12:49;;;;;;;3.30;1.90;;;;;;;;;;4920671;29;20056;-82
2022/09/01 03:15:15;;;;;;;3.88;1.70;;;;;;;;;;4918404;29;20028;-83
2022/09/01 03:17:41;;;;;;;2.65;1.52;;;;;;;;;;4919646;29;20031;-82
2022/09/01 03:20:07;;;;;;;4.82;2.05;;;;;;;;;;4919235;29;20055;-82
2022/09/01 03:22:33;;;;;;;4.45;1.70;;;;;;;;;;4919114;29;20031;-82
2022/09/01 03:25:00;;;;;;;8.13;2.03;;;;;;;;;;4921373;29;20028;-88
2022/09/01 03:27:26;;;;;;;4.88;2.30;;;;;;;;;;4921214;29;20033;-83
2022/09/01 03:29:52;;;;;;;4.80;2.10;;;;;;;;;;4920639;29;20048;-83
2022/09/01 03:32:18;;;;;;;3.67;1.88;;;;;;;;;;4919937;29;20020;-85
2022/09/01 03:34:44;;;;;;;8.25;1.90;;;;;;;;;;4921147;29;20043;-82
2022/09/01 03:37:11;;;;;;;3.30;1.52;;;;;;;;;;4926679;29;20028;-87
2022/09/01 03:39:37;;;;;;;3.88;1.80;;;;;;;;;;4917881;29;20079;-83
2022/09/01 03:42:03;;;;;;;2.83;1.75;;;;;;;;;;4919445;29;20131;-83
2022/09/01 03:44:39;;;;;;;3.40;1.98;;;;;;;;;;4920230;29;20033;-87
2022/09/01 03:47:09;;;;;;;8.23;1.80;;;;;;;;;;4918651;29;20024;-86
2022/09/01 03:49:35;;;;;;;3.47;1.67;;;;;;;;;;4917963;29;20047;-82
2022/09/01 03:52:02;;;;;;;4.53;1.85;;;;;;;;;;4918031;29;20031;-87
2022/09/01 03:54:29;;;;;;;2.22;1.40;;;;;;;;;;4919095;29;20085;-82
2022/09/01 03:56:56;;;;;;;5.40;1.55;;;;;;;;;;4917975;29;20032;-82
2022/09/01 03:59:24;;;;;;;4.13;1.60;;;;;;;;;;4917673;29;20040;-82
2022/09/01 04:01:50;;;;;;;5.03;1.85;;;;;;;;;;4921850;29;20024;-83
2022/09/01 04:04:17;;;;;;;3.47;1.80;;;;;;;;;;4918084;29;20035;-87
2022/09/01 04:06:44;;;;;;;3.05;1.38;;;;;;;;;;4921527;29;20109;-82
2022/09/01 04:09:10;;;;;;;17.17;2.25;;;;;;;;;;4918610;29;20043;-83
2022/09/01 04:11:38;;;;;;;13.88;2.20;;;;;;;;;;4917838;29;20036;-83
2022/09/01 04:14:04;;;;;;;4.35;1.70;;;;;;;;;;4919346;29;20024;-81
2022/09/01 04:19:24;;;;;;;4.85;1.67;;;;;;;;;;4918403;29;20438;-80
2022/09/01 04:22:00;;;;;;;5.38;2.20;;;;;;;;;;4916910;29;20481;-81
2022/09/01 04:24:29;;;;;;;3.65;1.80;;;;;;;;;;4916771;29;20038;-86
2022/09/01 04:26:57;;;;;;;4.28;2.22;;;;;;;;;;4917545;29;20021;-81
2022/09/01 04:29:27;;;;;;;7.47;1.83;;;;;;;;;;4917674;29;20039;-78
2022/09/01 04:32:00;;;;;;;4.18;1.88;;;;;;;;;;4916655;29;20087;-81
2022/09/01 04:34:27;;;;;;;3.75;1.98;;;;;;;;;;4921172;29;20032;-82
2022/09/01 04:36:54;;;;;;;4.45;1.90;;;;;;;;;;4918285;29;20401;-81
2022/09/01 04:39:22;;;;;;;4.32;1.80;;;;;;;;;;4917158;29;20123;-82
2022/09/01 04:41:49;;;;;;;4.25;2.10;;;;;;;;;;4917977;29;20056;-83
2022/09/01 04:44:17;;;;;;;5.70;2.00;;;;;;;;;;4916735;29;20115;-78
2022/09/01 04:46:49;;;;;;;5.55;2.30;;;;;;;;;;4916797;29;20068;-82
2022/09/01 04:49:18;;;;;;;5.90;2.13;;;;;;;;;;4917626;29;20071;-82
2022/09/01 04:51:45;;;;;;;7.15;2.10;;;;;;;;;;4917337;29;20092;-83
2022/09/01 04:54:36;;;;;;;3.00;1.70;;;;;;;;;;4963085;23;20052;-82
2022/09/01 05:00:21;;;;;;;3.45;1.75;;;;;;;;;;4908934;29;20110;-82
2022/09/01 05:02:50;;;;;;;6.00;2.30;;;;;;;;;;4928758;29;20024;-82
2022/09/01 05:05:17;;;;;;;4.75;2.05;;;;;;;;;;4924004;29;20024;-82
2022/09/01 05:07:43;;;;;;;4.10;1.80;;;;;;;;;;4922905;29;20074;-84
2022/09/01 05:10:09;;;;;;;5.35;1.98;;;;;;;;;;4920556;29;20046;-82
2022/09/01 05:12:35;;;;;;;8.05;2.22;;;;;;;;;;4931469;29;20028;-80
2022/09/01 05:15:05;;;;;;;5.35;2.00;;;;;;;;;;4937930;29;20028;-81
2022/09/01 05:17:31;;;;;;;6.65;2.13;;;;;;;;;;4936459;29;20095;-83
2022/09/01 05:19:57;;;;;;;5.40;1.83;;;;;;;;;;4920421;29;20544;-79
2022/09/01 05:22:24;;;;;;;7.05;1.80;;;;;;;;;;4936586;29;20042;-80
2022/09/01 05:24:50;;;;;;;5.28;1.80;;;;;;;;;;4920449;29;20388;-83
2022/09/01 05:27:17;;;;;;;2.72;1.40;;;;;;;;;;4937078;29;20142;-79
2022/09/01 05:29:45;;;;;;;5.28;1.65;;;;;;;;;;4918212;29;20044;-79
2022/09/01 05:32:12;;;;;;;3.97;1.80;;;;;;;;;;4918921;29;20028;-77
2022/09/01 05:34:39;;;;;;;5.95;1.70;;;;;;;;;;4919849;29;20492;-80
2022/09/01 05:37:07;;;;;;;3.03;1.40;;;;;;;;;;4939793;29;20075;-83
2022/09/01 05:39:35;;;;;;;5.10;1.20;;;;;;;;;;4919325;29;20032;-78
2022/09/01 05:42:03;;;;;;;3.53;1.50;;;;;;;;;;4937320;29;20015;-79
2022/09/01 05:44:29;;;;;;;3.40;1.58;;;;;;;;;;4924743;29;20127;-78
2022/09/01 05:46:58;;;;;;;3.15;1.20;;;;;;;;;;4923024;29;20035;-78
2022/09/01 05:49:24;;;;;;;3.95;1.33;;;;;;;;;;4922815;29;20043;-76
2022/09/01 05:51:51;;;;;;;5.00;1.30;;;;;;;;;;4922260;29;20020;-76
2022/09/01 05:54:24;;;;;;;3.53;1.08;;;;;;;;;;4922658;29;20055;-76
2022/09/01 05:56:52;;;;;;;2.97;1.25;;;;;;;;;;4923113;29;20023;-77
2022/09/01 05:59:19;;;;;;;4.32;1.10;;;;;;;;;;4939661;29;20024;-77
2022/09/01 06:01:46;;;;;;;5.55;1.45;;;;;;;;;;4922506;29;20064;-78
2022/09/01 06:40:47;;;;;;;1.65;0.63;;;;;;;;;;5032895;23;20052;-87
2022/09/01 06:43:14;;;;;;;1.25;0.50;;;;;;;;;;4902890;29;20065;-87
2022/09/01 06:45:42;;;;;;;2.38;0.60;;;;;;;;;;4925247;29;20038;-88
2022/09/01 06:48:12;;;;;;;1.00;0.38;;;;;;;;;;4921709;29;20079;-88
2022/09/01 06:50:38;;;;;;;2.50;0.88;;;;;;;;;;4925422;29;20181;-90
2022/09/01 06:53:09;;;;;;;3.72;0.80;;;;;;;;;;4921582;29;20035;-89
2022/09/01 06:55:40;;;;;;;1.42;0.60;;;;;;;;;;4921733;29;20392;-88
2022/09/01 06:58:07;;;;;;;2.20;0.60;;;;;;;;;;4920988;29;20468;-88
2022/09/01 07:10:54;;;;;;;2.38;0.73;;;;;;;;;;4899555;29;20048;-80
2022/09/01 07:13:22;;;;;;;2.25;0.60;;;;;;;;;;4916903;29;20043;-72
2022/09/01 07:15:53;;;;;;;1.20;0.40;;;;;;;;;;4918341;29;20484;-73
2022/09/01 07:18:21;;;;;;;1.40;0.63;;;;;;;;;;4918327;29;20382;-77
2022/09/01 07:20:48;;;;;;;1.73;0.60;;;;;;;;;;4917064;29;20024;-73
2022/09/01 07:23:18;;;;;;;1.40;0.50;;;;;;;;;;4917078;29;20099;-77
2022/09/01 07:25:46;;;;;;;3.90;0.70;;;;;;;;;;4917293;29;20080;-75
2022/09/01 07:28:13;;;;;;;3.25;0.70;;;;;;;;;;4896403;29;20032;-75
2022/09/01 07:30:44;;;;;;;7.05;0.77;;;;;;;;;;4863843;29;20072;-73
2022/09/01 07:33:11;;;;;;;1.45;0.50;;;;;;;;;;4863907;29;20032;-73
2022/09/01 07:35:38;;;;;;;1.25;0.50;;;;;;;;;;4863818;29;20044;-79
2022/09/01 07:38:08;;;;;;;1.13;0.50;;;;;;;;;;4863702;29;20443;-75
2022/09/01 07:40:36;;;;;;;3.28;0.50;;;;;;;;;;4863964;29;20060;-72
2022/09/01 07:43:07;;;;;;;1.45;0.47;;;;;;;;;;4863976;29;20036;-77
2022/09/01 07:45:34;;;;;;;1.95;0.55;;;;;;;;;;4864261;29;20036;-82
2022/09/01 07:48:05;;;;;;;1.73;0.47;;;;;;;;;;4863632;29;20029;-73
2022/09/01 07:50:32;;;;;;;1.73;0.65;;;;;;;;;;4863566;29;20136;-74
2022/09/01 07:53:00;;;;;;;2.10;0.45;;;;;;;;;;4862773;29;20056;-75
2022/09/01 07:55:29;;;;;;;2.33;1.05;;;;;;;;;;4863348;29;20112;-82
2022/09/01 07:57:58;;;;;;;3.15;0.50;;;;;;;;;;4863260;29;20029;-81
2022/09/01 08:00:25;;;;;;;1.60;0.82;;;;;;;;;;4879948;29;20073;-80
2022/09/01 08:02:54;;;;;;;2.10;0.70;;;;;;;;;;4880616;29;20057;-76
2022/09/01 08:05:25;;;;;;;2.40;0.70;;;;;;;;;;4879254;29;20394;-81
2022/09/01 08:07:51;;;;;;;1.50;0.80;;;;;;;;;;4863450;29;20037;-74
2022/09/01 08:10:17;;;;;;;3.90;1.50;;;;;;;;;;4862811;29;20405;-79
2022/09/01 08:12:44;;;;;;;5.47;2.50;;;;;;;;;;4879865;29;20113;-80
2022/09/01 08:15:11;;;;;;;1.65;0.70;;;;;;;;;;4863156;29;20482;-79
2022/09/01 08:17:37;;;;;;;1.50;0.60;;;;;;;;;;4879880;29;20446;-75
2022/09/01 08:20:07;;;;;;;2.38;0.77;;;;;;;;;;4863198;29;20037;-76
2022/09/01 08:22:33;;;;;;;1.27;0.60;;;;;;;;;;4863114;29;20040;-75
2022/09/01 08:24:59;;;;;;;1.60;0.40;;;;;;;;;;4879736;29;20111;-80
2022/09/01 08:27:25;;;;;;;1.17;0.50;;;;;;;;;;4879762;29;20028;-78
2022/09/01 08:29:51;;;;;;;1.17;0.45;;;;;;;;;;4862852;29;20106;-80
2022/09/01 08:32:19;;;;;;;1.85;0.60;;;;;;;;;;4879660;29;20025;-82
2022/09/01 08:34:45;;;;;;;1.58;0.50;;;;;;;;;;4862841;29;20124;-77
2022/09/01 08:37:12;;;;;;;4.38;0.63;;;;;;;;;;4879561;29;20017;-74
2022/09/01 08:39:38;;;;;;;1.20;0.50;;;;;;;;;;4862744;29;20052;-73
2022/09/01 08:42:13;;;;;;;1.77;0.50;;;;;;;;;;4879600;29;20033;-73
2022/09/01 08:44:58;;;;;;;2.17;0.88;;;;;;;;;;4879621;29;20029;-81
2022/09/01 08:47:24;;;;;;;5.25;0.80;;;;;;;;;;4862881;29;20394;-75
2022/09/01 08:49:50;;;;;;;1.58;0.63;;;;;;;;;;4880522;29;20047;-76
2022/09/01 08:52:33;;;;;;;1.42;0.70;;;;;;;;;;4898725;29;20025;-76
2022/09/01 08:55:13;;;;;;;3.40;0.88;;;;;;;;;;4881451;29;20064;-82
2022/09/01 08:57:41;;;;;;;1.30;0.50;;;;;;;;;;4881898;29;20080;-86
2022/09/01 09:00:10;;;;;;;1.45;0.60;;;;;;;;;;4882070;29;20028;-85
2022/09/01 09:02:53;;;;;;;4.53;0.77;;;;;;;;;;4872406;29;20065;-84
2022/09/01 09:05:47;;;;;;;1.50;0.60;;;;;;;;;;4862931;29;20029;-85
2022/09/01 09:08:16;;;;;;;1.45;0.50;;;;;;;;;;4860090;29;20055;-80
2022/09/01 09:10:46;;;;;;;1.42;0.50;;;;;;;;;;4862621;29;20061;-85
2022/09/01 09:13:21;;;;;;;2.60;1.05;;;;;;;;;;4863535;29;20029;-79
2022/09/01 09:15:51;;;;;;;1.80;0.77;;;;;;;;;;4877393;29;20128;-82
2022/09/01 09:18:23;;;;;;;1.75;0.60;;;;;;;;;;4880788;29;20060;-85
2022/09/01 09:20:50;;;;;;;3.45;0.82;;;;;;;;;;4900612;29;20055;-86
2022/09/01 09:23:24;;;;;;;1.95;0.68;;;;;;;;;;4884841;29;20032;-85
2022/09/01 09:25:50;;;;;;;1.70;0.68;;;;;;;;;;4880181;29;20397;-84
2022/09/01 09:28:17;;;;;;;4.03;0.90;;;;;;;;;;4866177;29;20117;-80
2022/09/01 09:30:43;;;;;;;3.20;0.73;;;;;;;;;;4883814;29;20049;-82
2022/09/01 09:33:11;;;;;;;1.55;0.65;;;;;;;;;;4880474;29;20033;-78
2022/09/01 09:35:37;;;;;;;1.75;0.80;;;;;;;;;;4866096;29;20033;-81
2022/09/01 09:38:22;;;;;;;1.52;0.70;;;;;;;;;;4882656;29;20076;-85
2022/09/01 09:40:59;;;;;;;3.72;0.75;;;;;;;;;;4872233;29;20051;-84
2022/09/01 09:43:26;;;;;;;4.65;0.70;;;;;;;;;;4884495;29;20040;-77
2022/09/01 09:46:12;;;;;;;1.40;0.55;;;;;;;;;;4884192;29;20033;-84
2022/09/01 09:48:38;;;;;;;1.17;0.47;;;;;;;;;;4884391;29;20029;-89
2022/09/01 09:51:19;;;;;;;1.65;0.65;;;;;;;;;;4886886;29;20079;-89
2022/09/01 09:53:46;;;;;;;1.20;0.63;;;;;;;;;;4885024;29;20069;-91
2022/09/01 09:56:15;;;;;;;4.05;0.93;;;;;;;;;;4881966;29;20505;-86
2022/09/01 09:58:42;;;;;;;2.25;0.70;;;;;;;;;;4865683;29;20036;-82
2022/09/01 10:01:14;;;;;;;2.13;0.63;;;;;;;;;;4895533;29;20060;-86
2022/09/01 10:03:43;;;;;;;2.10;0.53;;;;;;;;;;4881544;29;20083;-85
2022/09/01 10:06:29;;;;;;;1.13;0.55;;;;;;;;;;4881288;29;20028;-84
2022/09/01 10:08:55;;;;;;;3.03;0.93;;;;;;;;;;4888502;29;20056;-82
2022/09/01 10:11:30;;;;;;;3.10;0.80;;;;;;;;;;4880625;29;20033;-75
2022/09/01 10:13:56;;;;;;;1.90;0.70;;;;;;;;;;4894310;29;20460;-85
2022/09/01 10:16:28;;;;;;;5.80;0.90;;;;;;;;;;4865320;29;20375;-83
2022/09/01 10:18:59;;;;;;;4.97;0.70;;;;;;;;;;4865226;29;20479;-84
2022/09/01 10:21:32;;;;;;;1.73;0.70;;;;;;;;;;4870076;29;20447;-81
2022/09/01 10:23:58;;;;;;;;;;;;;;;;;;4865483;29;20390;-86
2022/09/01 10:26:26;;;;;;;2.33;0.75;;;;;;;;;;4883319;29;20340;-82
2022/09/01 10:28:52;;;;;;;2.80;0.70;;;;;;;;;;4878866;29;20033;-81
2022/09/01 10:31:19;;;;;;;3.13;0.80;;;;;;;;;;4880810;29;20474;-82
2022/09/01 10:33:45;;;;;;;6.78;0.80;;;;;;;;;;4882384;29;20028;-81
2022/09/01 10:36:13;;;;;;;1.73;0.70;;;;;;;;;;4879472;29;20490;-83
2022/09/01 10:38:41;;;;;;;2.47;0.70;;;;;;;;;;4880591;29;20478;-83
2022/09/01 10:41:08;;;;;;;3.85;0.68;;;;;;;;;;4891016;29;20032;-83
2022/09/01 10:43:36;;;;;;;1.73;0.55;;;;;;;;;;4883318;29;20024;-76
2022/09/01 10:46:17;;;;;;;4.53;0.65;;;;;;;;;;4883355;29;20035;-85
2022/09/01 10:48:43;;;;;;;1.17;0.50;;;;;;;;;;4883338;29;20047;-82
2022/09/01 10:51:13;;;;;;;2.65;0.95;;;;;;;;;;4883231;29;20123;-80
2022/09/01 10:53:43;;;;;;;2.35;0.55;;;;;;;;;;4900547;29;20034;-76
2022/09/01 10:56:09;;;;;;;1.80;0.60;;;;;;;;;;4893343;29;20025;-76
2022/09/01 10:58:43;;;;;;;1.42;0.57;;;;;;;;;;4895768;29;20442;-76
2022/09/01 11:01:09;;;;;;;4.97;0.70;;;;;;;;;;4899038;29;20389;-86
2022/09/01 11:03:36;;;;;;;7.78;0.70;;;;;;;;;;4879581;29;20112;-80
2022/09/01 11:06:06;;;;;;;1.88;0.50;;;;;;;;;;4864393;29;20040;-75
2022/09/01 11:08:32;;;;;;;3.38;0.70;;;;;;;;;;4864087;29;20032;-77
2022/09/01 11:10:58;;;;;;;1.27;0.50;;;;;;;;;;4866263;29;20043;-80
2022/09/01 11:13:30;;;;;;;0.75;0.30;;;;;;;;;;4879748;29;20119;-83
2022/09/01 11:16:16;;;;;;;1.73;0.50;;;;;;;;;;4880203;29;20401;-80
2022/09/01 11:18:42;;;;;;;2.00;0.63;;;;;;;;;;4889568;29;20036;-82
2022/09/01 11:21:17;;;;;;;1.52;0.50;;;;;;;;;;4879194;29;20123;-81
2022/09/01 11:23:45;;;;;;;2.00;0.55;;;;;;;;;;4881535;29;20112;-82
2022/09/01 11:26:34;;;;;;;5.57;0.50;;;;;;;;;;4888919;29;20020;-81
2022/09/01 11:29:00;;;;;;;2.97;0.60;;;;;;;;;;4860435;29;20036;-79
2022/09/01 11:31:47;;;;;;;2.55;0.55;;;;;;;;;;4896801;29;20040;-78
2022/09/01 11:34:16;;;;;;;1.45;0.52;;;;;;;;;;4882639;29;20024;-80
2022/09/01 11:36:48;;;;;;;1.17;0.50;;;;;;;;;;4899898;29;20073;-77
2022/09/01 11:39:25;;;;;;;2.28;0.70;;;;;;;;;;4882517;29;20035;-83
2022/09/01 11:42:04;;;;;;;1.98;0.60;;;;;;;;;;4880815;29;20120;-80
2022/09/01 11:44:33;;;;;;;3.85;0.70;;;;;;;;;;4887966;29;20486;-78
2022/09/01 11:47:04;;;;;;;3.50;0.95;;;;;;;;;;4879688;29;20035;-79
2022/09/01 11:49:33;;;;;;;1.75;0.60;;;;;;;;;;4874511;29;20040;-78
2022/09/01 11:52:00;;;;;;;1.27;0.40;;;;;;;;;;4878509;29;20466;-78
2022/09/01 11:54:28;;;;;;;1.75;0.57;;;;;;;;;;4889171;29;20509;-79
2022/09/01 11:56:54;;;;;;;2.30;0.73;;;;;;;;;;4881626;29;20039;-75
2022/09/01 11:59:30;;;;;;;2.08;0.20;;;;;;;;;;4888436;29;20021;-78
2022/09/01 12:01:57;;;;;;;0.82;0.30;;;;;;;;;;4887789;29;20024;-78
2022/09/01 12:04:26;;;;;;;2.67;0.40;;;;;;;;;;4888882;29;20029;-78
2022/09/01 12:06:54;;;;;;;0.93;0.30;;;;;;;;;;4879260;29;20067;-80
2022/09/01 12:09:20;;;;;;;1.52;0.30;;;;;;;;;;4889828;29;20040;-80
2022/09/01 12:11:47;;;;;;;0.55;0.20;;;;;;;;;;4876416;29;20116;-77
2022/09/01 12:14:19;;;;;;;1.33;0.50;;;;;;;;;;4887372;29;20040;-76
2022/09/01 12:16:55;;;;;;;2.40;0.90;;;;;;;;;;4880524;29;20465;-79
2022/09/01 12:19:25;;;;;;;1.95;0.50;;;;;;;;;;4863246;29;20390;-78
2022/09/01 12:21:59;;;;;;;1.77;0.60;;;;;;;;;;4863317;29;20056;-78
2022/09/01 12:24:26;;;;;;;3.50;0.70;;;;;;;;;;4863073;29;20036;-74
2022/09/01 12:26:54;;;;;;;1.23;0.45;;;;;;;;;;4879685;29;20090;-75
2022/09/01 12:29:22;;;;;;;5.80;0.50;;;;;;;;;;4879586;29;20037;-73
2022/09/01 12:31:51;;;;;;;1.27;0.57;;;;;;;;;;4863066;29;20029;-75
2022/09/01 12:34:32;;;;;;;1.70;0.75;;;;;;;;;;4863159;29;20025;-76
2022/09/01 12:37:17;;;;;;;1.92;0.98;;;;;;;;;;4862827;29;20029;-76
2022/09/01 12:39:45;;;;;;;1.38;0.70;;;;;;;;;;4862780;29;20040;-75
2022/09/01 12:42:20;;;;;;;2.30;0.70;;;;;;;;;;4862797;29;20021;-75
2022/09/01 12:44:47;;;;;;;3.33;1.13;;;;;;;;;;4862796;29;20390;-75
2022/09/01 12:47:34;;;;;;;6.97;0.82;;;;;;;;;;4879668;29;20051;-80
2022/09/01 12:50:02;;;;;;;2.22;0.90;;;;;;;;;;4879501;29;20123;-74
2022/09/01 12:52:28;;;;;;;4.47;1.27;;;;;;;;;;4864505;29;20093;-77
2022/09/01 12:54:57;;;;;;;3.22;0.90;;;;;;;;;;4866604;29;20056;-75
2022/09/01 12:57:50;;;;;;;3.38;1.15;;;;;;;;;;4866610;29;20551;-76
2022/09/01 13:00:30;;;;;;;2.00;0.80;;;;;;;;;;4873166;29;20033;-74
2022/09/01 13:03:02;;;;;;;1.73;0.80;;;;;;;;;;4883247;29;20402;-79
2022/09/01 13:05:32;;;;;;;1.42;0.70;;;;;;;;;;4866610;29;20128;-76
2022/09/01 13:08:07;;;;;;;3.45;1.27;;;;;;;;;;4866565;29;20113;-77
2022/09/01 13:10:36;;;;;;;4.03;0.88;;;;;;;;;;4869508;29;20143;-76
2022/09/01 13:13:03;;;;;;;6.07;1.30;;;;;;;;;;4901579;29;20033;-84
2022/09/01 13:15:32;;;;;;;4.07;1.08;;;;;;;;;;4901726;29;20119;-83
2022/09/01 13:17:59;;;;;;;3.65;0.90;;;;;;;;;;4884849;29;20028;-79
2022/09/01 13:20:25;;;;;;;4.15;0.88;;;;;;;;;;4884748;29;20497;-82
2022/09/01 13:22:53;;;;;;;2.30;0.90;;;;;;;;;;4902175;29;20033;-81
2022/09/01 13:25:20;;;;;;;3.17;0.80;;;;;;;;;;4901635;29;20021;-80
2022/09/01 13:27:46;;;;;;;1.90;0.82;;;;;;;;;;4897905;29;20041;-79
2022/09/01 13:30:17;;;;;;;1.30;0.75;;;;;;;;;;4882667;29;20044;-76
2022/09/01 13:32:43;;;;;;;4.93;1.10;;;;;;;;;;4882785;29;20109;-79
2022/09/01 13:35:10;;;;;;;6.15;1.00;;;;;;;;;;4865899;29;20033;-78
2022/09/01 13:37:36;;;;;;;3.03;0.95;;;;;;;;;;4866072;29;20033;-82
2022/09/01 13:40:04;;;;;;;2.47;1.00;;;;;;;;;;4897553;29;20041;-76
2022/09/01 13:42:30;;;;;;;1.80;0.82;;;;;;;;;;4901371;29;20029;-77
2022/09/01 13:44:57;;;;;;;2.63;0.82;;;;;;;;;;4884247;29;20127;-77
2022/09/01 13:47:23;;;;;;;2.33;0.90;;;;;;;;;;4901721;29;20042;-77
2022/09/01 13:49:50;;;;;;;2.45;0.90;;;;;;;;;;4901088;29;20084;-77
2022/09/01 13:52:16;;;;;;;2.03;0.60;;;;;;;;;;4899849;29;20115;-86
2022/09/01 13:54:43;;;;;;;7.72;1.10;;;;;;;;;;4884406;29;20047;-85
2022/09/01 13:57:10;;;;;;;1.73;0.80;;;;;;;;;;4900115;29;20041;-76
2022/09/01 13:59:36;;;;;;;2.30;0.73;;;;;;;;;;4901537;29;20029;-85
2022/09/01 14:02:05;;;;;;;1.73;0.70;;;;;;;;;;4900026;29;20056;-84
2022/09/01 14:04:31;;;;;;;1.35;0.63;;;;;;;;;;4899355;29;20036;-82
2022/09/01 14:06:58;;;;;;;1.83;0.80;;;;;;;;;;4898778;29;20116;-77
2022/09/01 14:09:25;;;;;;;2.67;1.05;;;;;;;;;;4881434;29;20417;-77
2022/09/01 14:11:54;;;;;;;3.20;0.80;;;;;;;;;;4864284;29;20035;-75
2022/09/01 14:14:20;;;;;;;3.08;0.75;;;;;;;;;;4864389;29;20028;-81
2022/09/01 14:16:47;;;;;;;1.42;0.63;;;;;;;;;;4881394;29;20056;-84
2022/09/01 14:19:14;;;;;;;2.55;0.90;;;;;;;;;;4863992;29;20040;-80
2022/09/01 14:21:40;;;;;;;6.45;0.80;;;;;;;;;;4880660;29;20434;-84
2022/09/01 14:24:07;;;;;;;1.45;0.63;;;;;;;;;;4883366;29;20029;-85
2022/09/01 14:26:33;;;;;;;8.70;1.52;;;;;;;;;;4864112;29;20367;-82
2022/09/01 14:29:01;;;;;;;1.90;0.70;;;;;;;;;;4864052;29;20115;-84
2022/09/01 14:31:30;;;;;;;1.70;0.70;;;;;;;;;;4864452;29;20049;-85
2022/09/01 14:33:57;;;;;;;1.58;0.50;;;;;;;;;;4864114;29;20112;-84
2022/09/01 14:36:25;;;;;;;2.90;0.60;;;;;;;;;;4881088;29;20040;-84
2022/09/01 14:38:52;;;;;;;1.45;0.80;;;;;;;;;;4864079;29;20033;-78
2022/09/01 14:41:23;;;;;;;1.52;0.60;;;;;;;;;;4880639;29;20036;-76
2022/09/01 14:43:53;;;;;;;1.55;0.73;;;;;;;;;;4880895;29;20036;-84
2022/09/01 14:46:19;;;;;;;1.90;0.60;;;;;;;;;;4864117;29;20033;-86
2022/09/01 14:48:47;;;;;;;1.95;0.80;;;;;;;;;;4863532;29;20035;-86
2022/09/01 14:51:22;;;;;;;6.07;1.08;;;;;;;;;;4863773;29;20131;-86
2022/09/01 14:53:48;;;;;;;2.40;0.70;;;;;;;;;;4863774;29;20393;-86
2022/09/01 14:56:17;;;;;;;2.15;0.65;;;;;;;;;;4863840;29;20032;-79
2022/09/01 14:58:45;;;;;;;1.80;0.80;;;;;;;;;;4863829;29;20041;-86
2022/09/01 15:01:14;;;;;;;4.55;0.80;;;;;;;;;;4863584;29;20032;-87
2022/09/01 15:03:41;;;;;;;4.72;0.80;;;;;;;;;;4863642;29;20136;-86
2022/09/01 15:06:07;;;;;;;7.47;1.00;;;;;;;;;;4863667;29;20025;-87
2022/09/01 15:08:33;;;;;;;1.88;0.70;;;;;;;;;;4811223;29;1545930;-84
2022/09/01 15:11:00;;;;;;;4.20;0.77;;;;;;;;;;4864286;29;20122;-86
2022/09/01 15:19:47;;;;;;;2.45;0.68;;;;;;;;;;4772920;29;20173;-82
2022/09/01 15:22:15;;;;;;;1.85;0.68;;;;;;;;;;4805710;29;20206;-84
2022/09/01 15:24:41;;;;;;;3.00;0.75;;;;;;;;;;4805444;29;20117;-83
2022/09/01 15:27:10;;;;;;;1.88;0.63;;;;;;;;;;4855880;29;20049;-85
2022/09/01 15:29:44;;;;;;;1.63;0.70;;;;;;;;;;4860993;29;20392;-86
2022/09/01 15:32:11;;;;;;;3.85;0.70;;;;;;;;;;4862308;29;20056;-86
2022/09/01 15:34:37;;;;;;;2.95;0.80;;;;;;;;;;4862297;29;20093;-86
2022/09/01 15:37:04;;;;;;;0.90;0.50;;;;;;;;;;4860948;29;20022;-82
2022/09/01 15:39:30;;;;;;;1.85;0.52;;;;;;;;;;4861194;29;20037;-86
2022/09/01 15:41:57;;;;;;;2.70;0.93;;;;;;;;;;4860855;29;20491;-81
2022/09/01 15:44:23;;;;;;;1.35;0.60;;;;;;;;;;4862594;29;20055;-87
2022/09/01 15:46:49;;;;;;;1.70;0.73;;;;;;;;;;4860757;29;20022;-85
2022/09/01 15:49:16;;;;;;;9.38;0.98;;;;;;;;;;4860548;29;20430;-81
2022/09/01 15:51:43;;;;;;;3.38;0.88;;;;;;;;;;4860830;29;20090;-85
2022/09/01 15:54:17;;;;;;;2.30;0.70;;;;;;;;;;4860411;29;20116;-85
2022/09/01 15:56:45;;;;;;;1.48;0.63;;;;;;;;;;4860595;29;20073;-86
2022/09/01 15:59:12;;;;;;;1.58;0.80;;;;;;;;;;4860655;29;20391;-79